createdAt,value
2023-03-11T00:01:13.673Z,7.99
2023-03-11T00:03:42.234Z,8.01
2023-03-11T00:06:10.626Z,8.02
2023-03-11T00:08:41.536Z,7.99
2023-03-11T00:11:10.220Z,7.95
2023-03-11T00:13:41.568Z,7.87
2023-03-11T00:16:10.440Z,7.79
2023-03-11T00:18:40.244Z,7.80
2023-03-11T00:21:14.682Z,7.82
2023-03-11T00:23:43.228Z,7.79
2023-03-11T00:26:12.902Z,7.81
2023-03-11T00:28:41.486Z,7.75
2023-03-11T00:31:12.641Z,7.63
2023-03-11T00:34:00.955Z,7.47
2023-03-11T00:36:31.903Z,7.46
2023-03-11T00:39:02.514Z,7.43
2023-03-11T00:41:31.486Z,7.35
2023-03-11T00:44:00.448Z,7.33
2023-03-11T00:46:31.405Z,7.23
2023-03-11T00:49:00.133Z,7.19
2023-03-11T00:51:29.637Z,7.14
2023-03-11T00:53:57.982Z,7.19
2023-03-11T00:56:26.578Z,7.13
2023-03-11T00:58:56.205Z,7.07
2023-03-11T01:01:25.164Z,7.12
2023-03-11T01:03:53.839Z,7.09
2023-03-11T01:06:23.465Z,7.07
2023-03-11T01:08:55.217Z,6.98
2023-03-11T01:11:23.470Z,6.99
2023-03-11T01:13:53.202Z,7.00
2023-03-11T01:16:23.912Z,6.96
2023-03-11T01:18:53.201Z,6.95
2023-03-11T01:21:22.019Z,6.93
2023-03-11T01:23:50.362Z,6.93
2023-03-11T01:26:18.958Z,6.90
2023-03-11T01:28:49.112Z,6.82
2023-03-11T01:31:17.707Z,6.89
2023-03-11T01:33:47.050Z,6.92
2023-03-11T01:36:15.388Z,6.95
2023-03-11T01:38:43.853Z,6.96
2023-03-11T01:41:12.415Z,7.00
2023-03-11T01:43:46.730Z,6.90
2023-03-11T01:46:28.153Z,6.91
2023-03-11T01:48:58.261Z,6.91
2023-03-11T01:51:38.773Z,6.99
2023-03-11T01:54:13.187Z,7.01
2023-03-11T01:56:43.974Z,7.01
2023-03-11T01:59:13.053Z,7.04
2023-03-11T02:02:02.576Z,7.06
2023-03-11T02:04:32.216Z,7.01
2023-03-11T02:07:02.912Z,7.13
2023-03-11T02:09:32.128Z,7.19
2023-03-11T02:12:02.484Z,7.16
2023-03-11T02:14:31.704Z,7.14
2023-03-11T02:17:01.934Z,7.17
2023-03-11T02:19:33.889Z,7.14
2023-03-11T02:22:02.981Z,7.16
2023-03-11T02:24:35.962Z,7.14
2023-03-11T02:27:12.533Z,7.08
2023-03-11T02:29:42.511Z,7.14
2023-03-11T02:32:11.731Z,7.17
2023-03-11T02:34:43.527Z,7.21
2023-03-11T02:37:13.095Z,7.28
2023-03-11T02:39:44.641Z,7.31
2023-03-11T02:42:22.637Z,7.33
2023-03-11T02:45:11.060Z,7.35
2023-03-11T02:47:39.634Z,7.23
2023-03-11T02:50:11.370Z,7.26
2023-03-11T02:52:40.092Z,7.30
2023-03-11T02:55:08.991Z,7.27
2023-03-11T02:57:39.230Z,7.22
2023-03-11T03:00:14.286Z,7.25
2023-03-11T03:02:52.028Z,7.20
2023-03-11T03:05:21.081Z,7.23
2023-03-11T03:07:50.664Z,7.20
2023-03-11T03:10:20.600Z,7.11
2023-03-11T03:12:56.259Z,7.00
2023-03-11T03:15:27.073Z,6.97
2023-03-11T03:17:56.831Z,6.98
2023-03-11T03:20:30.534Z,6.89
2023-03-11T03:23:01.642Z,6.85
2023-03-11T03:25:32.270Z,6.80
2023-03-11T03:28:05.132Z,6.81
2023-03-11T03:30:35.496Z,6.78
2023-03-11T03:33:07.798Z,6.77
2023-03-11T03:35:40.488Z,6.76
2023-03-11T03:38:14.083Z,6.74
2023-03-11T03:40:47.909Z,6.75
2023-03-11T03:43:18.016Z,6.71
2023-03-11T03:45:55.779Z,6.79
2023-03-11T03:48:26.395Z,6.81
2023-03-11T03:50:56.424Z,6.94
2023-03-11T03:53:26.168Z,6.98
2023-03-11T03:55:54.862Z,7.06
2023-03-11T03:58:25.257Z,7.00
2023-03-11T04:00:56.200Z,7.02
2023-03-11T04:03:25.994Z,7.06
2023-03-11T04:06:14.243Z,7.05
2023-03-11T04:08:43.649Z,7.06
2023-03-11T04:11:12.745Z,6.91
2023-03-11T04:13:41.653Z,7.07
2023-03-11T04:16:10.300Z,7.06
2023-03-11T04:18:39.407Z,7.18
2023-03-11T04:21:09.688Z,7.15
2023-03-11T04:23:38.891Z,6.99
2023-03-11T04:26:07.532Z,6.95
2023-03-11T04:28:37.022Z,6.88
2023-03-11T04:31:06.989Z,6.84
2023-03-11T04:33:37.444Z,6.94
2023-03-11T04:36:10.400Z,7.08
2023-03-11T04:38:39.464Z,6.97
2023-03-11T04:41:09.076Z,6.94
2023-03-11T04:43:42.727Z,7.14
2023-03-11T04:46:11.185Z,7.38
2023-03-11T04:48:43.407Z,7.59
2023-03-11T04:51:11.730Z,7.72
2023-03-11T04:53:40.842Z,7.80
2023-03-11T04:56:09.972Z,7.91
2023-03-11T04:58:39.156Z,7.95
2023-03-11T05:01:08.475Z,8.12
2023-03-11T05:03:37.201Z,8.31
2023-03-11T05:06:06.764Z,8.62
2023-03-11T05:08:35.392Z,8.98
2023-03-11T05:11:04.548Z,9.61
2023-03-11T05:13:34.640Z,10.26
2023-03-11T05:16:04.220Z,10.49
2023-03-11T05:18:33.720Z,10.39
2023-03-11T05:21:06.859Z,10.25
2023-03-11T05:23:37.087Z,10.22
2023-03-11T05:26:05.820Z,10.06
2023-03-11T05:28:34.678Z,9.92
2023-03-11T05:31:03.695Z,9.82
2023-03-11T05:33:35.583Z,9.79
2023-03-11T05:36:05.967Z,9.90
2023-03-11T05:38:35.762Z,9.63
2023-03-11T05:41:04.958Z,9.60
2023-03-11T05:43:33.919Z,9.46
2023-03-11T05:46:02.389Z,9.32
2023-03-11T05:48:31.953Z,9.54
2023-03-11T05:51:00.266Z,9.59
2023-03-11T05:53:28.968Z,9.55
2023-03-11T05:55:57.957Z,9.69
2023-03-11T05:58:28.070Z,9.67
2023-03-11T06:00:57.690Z,9.73
2023-03-11T06:03:34.166Z,9.61
2023-03-11T06:06:02.452Z,9.50
2023-03-11T06:08:34.642Z,9.62
2023-03-11T06:11:04.418Z,9.53
2023-03-11T06:13:36.617Z,9.56
2023-03-11T06:16:06.147Z,9.66
2023-03-11T06:18:36.789Z,9.79
2023-03-11T06:21:06.166Z,9.64
2023-03-11T06:23:36.259Z,9.62
2023-03-11T06:26:05.900Z,9.76
2023-03-11T06:28:40.527Z,9.92
2023-03-11T06:31:37.397Z,9.97
2023-03-11T06:34:09.455Z,10.00
2023-03-11T06:36:37.788Z,10.16
2023-03-11T06:39:10.311Z,10.19
2023-03-11T06:41:39.171Z,10.25
2023-03-11T06:44:08.662Z,10.14
2023-03-11T06:46:39.860Z,9.82
2023-03-11T06:49:08.472Z,9.82
2023-03-11T06:51:38.181Z,9.53
2023-03-11T06:54:07.481Z,9.89
2023-03-11T06:56:40.290Z,10.00
2023-03-11T06:59:09.992Z,10.10
2023-03-11T07:01:38.366Z,10.22
2023-03-11T07:04:07.883Z,10.38
2023-03-11T07:06:37.653Z,10.54
2023-03-11T07:09:13.725Z,10.32
2023-03-11T07:11:44.878Z,10.49
2023-03-11T07:14:16.801Z,10.45
2023-03-11T07:16:48.482Z,10.56
2023-03-11T07:19:26.596Z,10.74
2023-03-11T07:21:54.931Z,10.85
2023-03-11T07:24:27.254Z,10.48
2023-03-11T07:26:55.783Z,10.62
2023-03-11T07:29:24.194Z,10.81
2023-03-11T07:31:52.982Z,10.79
2023-03-11T07:34:22.171Z,10.66
2023-03-11T07:36:55.568Z,10.86
2023-03-11T07:39:24.149Z,11.05
2023-03-11T07:41:52.432Z,11.14
2023-03-11T07:44:21.262Z,11.11
2023-03-11T07:46:49.456Z,11.13
2023-03-11T07:49:21.960Z,11.20
2023-03-11T07:51:51.310Z,11.27
2023-03-11T07:54:19.944Z,11.46
2023-03-11T07:56:49.815Z,11.26
2023-03-11T07:59:18.461Z,11.31
2023-03-11T08:01:47.545Z,11.47
2023-03-11T08:04:17.332Z,11.46
2023-03-11T08:06:46.627Z,11.22
2023-03-11T08:09:15.290Z,11.17
2023-03-11T08:11:44.973Z,11.16
2023-03-11T08:14:13.296Z,11.23
2023-03-11T08:16:42.517Z,11.32
2023-03-11T08:19:12.471Z,11.25
2023-03-11T08:21:40.961Z,11.35
2023-03-11T08:24:11.184Z,11.22
2023-03-11T08:26:39.611Z,11.41
2023-03-11T08:29:11.256Z,11.32
2023-03-11T08:31:39.766Z,11.23
2023-03-11T08:34:09.949Z,11.12
2023-03-11T08:36:38.716Z,11.00
2023-03-11T08:39:07.229Z,11.07
2023-03-11T08:41:35.723Z,11.01
2023-03-11T08:44:04.138Z,11.07
2023-03-11T08:46:37.290Z,10.70
2023-03-11T08:49:05.807Z,10.71
2023-03-11T08:51:34.658Z,10.68
2023-03-11T08:54:10.226Z,10.96
2023-03-11T08:56:39.945Z,11.06
2023-03-11T08:59:08.858Z,11.15
2023-03-11T09:01:38.140Z,11.17
2023-03-11T09:04:06.278Z,11.30
2023-03-11T09:06:44.273Z,11.18
2023-03-11T09:09:13.055Z,10.97
2023-03-11T09:11:42.183Z,10.63
2023-03-11T09:14:11.020Z,10.68
2023-03-11T09:16:40.076Z,10.69
2023-03-11T09:19:08.401Z,10.64
2023-03-11T09:21:37.278Z,10.67
2023-03-11T09:24:06.885Z,10.56
2023-03-11T09:26:35.203Z,10.80
2023-03-11T09:29:03.723Z,10.99
2023-03-11T09:31:42.096Z,11.29
2023-03-11T09:34:15.991Z,11.53
2023-03-11T09:36:44.889Z,11.56
2023-03-11T09:39:13.724Z,11.53
2023-03-11T09:41:58.272Z,11.52
2023-03-11T09:44:27.044Z,11.82
2023-03-11T09:47:10.530Z,11.72
2023-03-11T09:49:45.505Z,11.78
2023-03-11T09:52:36.826Z,11.57
2023-03-11T09:55:06.181Z,11.69
2023-03-11T09:57:35.083Z,11.67
2023-03-11T10:00:04.601Z,11.78
2023-03-11T10:02:44.910Z,11.59
2023-03-11T10:05:15.199Z,11.75
2023-03-11T10:07:48.036Z,11.74
2023-03-11T10:10:16.322Z,11.79
2023-03-11T10:12:46.146Z,11.61
2023-03-11T10:15:17.558Z,11.57
2023-03-11T10:17:47.657Z,11.56
2023-03-11T10:20:19.167Z,11.68
2023-03-11T10:22:51.165Z,11.69
2023-03-11T10:25:24.522Z,11.86
2023-03-11T10:27:54.654Z,11.77
2023-03-11T10:30:36.788Z,11.88
2023-03-11T10:33:12.792Z,11.88
2023-03-11T10:35:42.300Z,11.91
2023-03-11T10:38:22.835Z,12.09
2023-03-11T10:40:51.885Z,12.18
2023-03-11T10:43:21.999Z,12.02
2023-03-11T10:45:53.068Z,12.09
2023-03-11T10:48:22.056Z,12.23
2023-03-11T10:51:03.877Z,12.18
2023-03-11T10:53:33.865Z,12.14
2023-03-11T10:56:03.004Z,12.29
2023-03-11T10:58:31.545Z,12.43
2023-03-11T11:01:06.764Z,12.45
2023-03-11T11:03:35.529Z,12.37
2023-03-11T11:06:07.870Z,12.40
2023-03-11T11:08:36.914Z,12.41
2023-03-11T11:11:10.765Z,12.43
2023-03-11T11:13:41.380Z,12.55
2023-03-11T11:16:16.843Z,12.49
2023-03-11T11:18:49.352Z,12.51
2023-03-11T11:21:38.144Z,12.52
2023-03-11T11:24:18.781Z,12.42
2023-03-11T11:27:05.223Z,12.63
2023-03-11T11:29:34.991Z,12.57
2023-03-11T11:32:19.364Z,12.46
2023-03-11T11:35:01.152Z,12.41
2023-03-11T11:37:34.409Z,12.20
2023-03-11T11:40:11.262Z,12.13
2023-03-11T11:42:44.681Z,12.28
2023-03-11T11:45:24.617Z,12.27
2023-03-11T11:47:54.439Z,12.24
2023-03-11T11:50:36.205Z,12.34
2023-03-11T11:53:15.167Z,12.49
2023-03-11T11:55:50.982Z,12.43
2023-03-11T11:58:20.416Z,12.39
2023-03-11T12:01:08.999Z,12.61
2023-03-11T12:03:37.572Z,12.54
2023-03-11T12:06:12.887Z,12.49
2023-03-11T12:09:06.049Z,12.57
2023-03-11T12:11:37.075Z,12.71
2023-03-11T12:14:14.748Z,12.56
2023-03-11T12:16:43.766Z,12.62
2023-03-11T12:19:12.699Z,12.54
2023-03-11T12:21:44.496Z,12.59
2023-03-11T12:24:32.342Z,12.49
2023-03-11T12:27:02.761Z,12.30
2023-03-11T12:29:34.857Z,12.44
2023-03-11T12:32:03.743Z,12.28
2023-03-11T12:34:33.883Z,12.11
2023-03-11T12:37:05.111Z,11.93
2023-03-11T12:39:34.426Z,11.94
2023-03-11T12:42:22.691Z,11.88
2023-03-11T12:44:51.784Z,11.98
2023-03-11T12:47:21.757Z,11.98
2023-03-11T12:49:52.150Z,11.99
2023-03-11T12:52:22.570Z,11.96
2023-03-11T12:54:57.447Z,12.02
2023-03-11T12:57:27.374Z,12.25
2023-03-11T13:00:03.024Z,12.42
2023-03-11T13:02:47.876Z,12.76
2023-03-11T13:05:16.414Z,12.69
2023-03-11T13:07:57.428Z,12.80
2023-03-11T13:10:29.939Z,12.69
2023-03-11T13:12:58.709Z,12.72
2023-03-11T13:15:35.645Z,12.69
2023-03-11T13:18:19.093Z,12.59
2023-03-11T13:21:02.248Z,12.68
2023-03-11T13:23:41.026Z,12.86
2023-03-11T13:26:18.951Z,13.10
2023-03-11T13:29:00.173Z,12.96
2023-03-11T13:31:34.927Z,13.11
2023-03-11T13:34:04.053Z,13.08
2023-03-11T13:36:36.134Z,12.95
2023-03-11T13:39:05.854Z,12.97
2023-03-11T13:41:37.375Z,13.01
2023-03-11T13:44:30.691Z,12.92
2023-03-11T13:47:03.101Z,12.76
2023-03-11T13:49:34.344Z,12.92
2023-03-11T13:52:07.753Z,12.91
2023-03-11T13:54:38.745Z,12.77
2023-03-11T13:57:12.094Z,12.77
2023-03-11T13:59:40.428Z,12.69
2023-03-11T14:02:17.196Z,12.76
2023-03-11T14:04:59.029Z,12.86
2023-03-11T14:07:32.004Z,12.90
2023-03-11T14:10:17.903Z,12.89
2023-03-11T14:12:46.860Z,12.91
2023-03-11T14:15:17.953Z,12.86
2023-03-11T14:17:48.880Z,12.90
2023-03-11T14:20:18.827Z,12.76
2023-03-11T14:22:47.571Z,13.04
2023-03-11T14:25:19.864Z,13.09
2023-03-11T14:27:50.657Z,13.19
2023-03-11T14:30:24.275Z,13.07
2023-03-11T14:33:00.101Z,13.02
2023-03-11T14:35:29.698Z,13.09
2023-03-11T14:38:02.532Z,13.10
2023-03-11T14:40:32.435Z,13.03
2023-03-11T14:43:02.168Z,12.99
2023-03-11T14:45:33.110Z,13.04
2023-03-11T14:48:20.594Z,13.07
2023-03-11T14:50:49.779Z,13.23
2023-03-11T14:53:18.356Z,13.40
2023-03-11T14:56:00.428Z,13.42
2023-03-11T14:58:34.770Z,13.44
2023-03-11T15:01:14.480Z,13.36
2023-03-11T15:03:47.018Z,13.27
2023-03-11T15:06:15.504Z,13.39
2023-03-11T15:08:44.555Z,13.48
2023-03-11T15:11:13.487Z,13.38
2023-03-11T15:13:42.600Z,13.50
2023-03-11T15:16:29.735Z,13.57
2023-03-11T15:19:21.250Z,13.64
2023-03-11T15:21:49.975Z,13.48
2023-03-11T15:24:23.309Z,13.53
2023-03-11T15:26:56.667Z,13.61
2023-03-11T15:29:25.417Z,13.41
2023-03-11T15:31:53.873Z,13.37
2023-03-11T15:34:25.560Z,13.17
2023-03-11T15:36:55.764Z,13.13
2023-03-11T15:39:30.658Z,13.41
2023-03-11T15:42:00.176Z,13.32
2023-03-11T15:44:41.868Z,13.52
2023-03-11T15:47:15.245Z,13.67
2023-03-11T15:49:43.669Z,13.76
2023-03-11T15:52:12.292Z,13.88
2023-03-11T15:54:47.392Z,13.43
2023-03-11T15:57:24.901Z,13.55
2023-03-11T15:59:56.235Z,13.47
2023-03-11T16:02:29.137Z,13.26
2023-03-11T16:04:58.220Z,13.47
2023-03-11T16:07:39.072Z,13.45
2023-03-11T16:10:08.689Z,13.31
2023-03-11T16:12:45.221Z,13.28
2023-03-11T16:15:29.116Z,13.08
2023-03-11T16:18:04.115Z,12.79
2023-03-11T16:20:39.477Z,12.97
2023-03-11T16:23:50.262Z,13.25
2023-03-11T16:26:21.044Z,12.88
2023-03-11T16:28:49.638Z,12.83
2023-03-11T16:31:23.266Z,12.74
2023-03-11T16:33:53.158Z,12.67
2023-03-11T16:36:21.666Z,12.59
2023-03-11T16:38:53.174Z,12.69
2023-03-11T16:41:22.501Z,13.02
2023-03-11T16:43:50.913Z,13.09
2023-03-11T16:46:19.637Z,12.97
2023-03-11T16:48:48.173Z,12.89
2023-03-11T16:51:16.716Z,12.83
2023-03-11T16:53:46.682Z,12.81
2023-03-11T16:56:15.682Z,12.82
2023-03-11T16:58:51.840Z,12.60
2023-03-11T17:01:22.061Z,12.52
2023-03-11T17:03:52.270Z,12.70
2023-03-11T17:06:21.072Z,12.55
2023-03-11T17:08:54.920Z,12.62
2023-03-11T17:11:23.741Z,12.56
2023-03-11T17:13:52.375Z,12.50
2023-03-11T17:16:20.922Z,12.69
2023-03-11T17:18:50.112Z,12.82
2023-03-11T17:21:18.782Z,12.66
2023-03-11T17:23:47.326Z,12.67
2023-03-11T17:26:16.836Z,12.83
2023-03-11T17:28:46.388Z,12.69
2023-03-11T17:31:15.953Z,12.68
2023-03-11T17:33:44.690Z,12.61
2023-03-11T17:36:14.805Z,12.57
2023-03-11T17:38:46.450Z,12.84
2023-03-11T17:41:17.093Z,12.78
2023-03-11T17:43:45.768Z,12.77
2023-03-11T17:46:16.578Z,12.72
2023-03-11T17:48:46.148Z,12.57
2023-03-11T17:51:18.974Z,12.73
2023-03-11T17:53:47.546Z,12.68
2023-03-11T17:56:22.124Z,12.84
2023-03-11T17:58:52.444Z,12.84
2023-03-11T18:01:23.713Z,12.99
2023-03-11T18:03:56.151Z,13.12
2023-03-11T18:06:24.878Z,12.96
2023-03-11T18:08:55.348Z,13.05
2023-03-11T18:11:26.609Z,12.61
2023-03-11T18:13:55.182Z,12.64
2023-03-11T18:16:28.987Z,12.67
2023-03-11T18:18:57.707Z,12.74
2023-03-11T18:21:32.253Z,12.76
2023-03-11T18:24:07.131Z,12.88
2023-03-11T18:26:36.742Z,13.17
2023-03-11T18:29:06.147Z,13.07
2023-03-11T18:31:34.924Z,13.11
2023-03-11T18:34:05.183Z,13.44
2023-03-11T18:36:34.669Z,13.22
2023-03-11T18:39:11.531Z,13.16
2023-03-11T18:41:43.204Z,13.16
2023-03-11T18:44:16.464Z,13.13
2023-03-11T18:46:46.116Z,12.99
2023-03-11T18:49:14.591Z,13.25
2023-03-11T18:51:43.888Z,13.01
2023-03-11T18:54:12.989Z,12.89
2023-03-11T18:56:42.867Z,12.92
2023-03-11T18:59:12.451Z,12.92
2023-03-11T19:01:42.081Z,12.68
2023-03-11T19:04:10.751Z,12.65
2023-03-11T19:06:39.333Z,12.90
2023-03-11T19:09:08.363Z,12.95
2023-03-11T19:11:38.454Z,13.05
2023-03-11T19:14:07.407Z,12.92
2023-03-11T19:16:36.006Z,12.76
2023-03-11T19:19:06.080Z,12.70
2023-03-11T19:21:38.709Z,12.89
2023-03-11T19:24:26.045Z,12.86
2023-03-11T19:26:54.940Z,12.76
2023-03-11T19:29:27.155Z,12.83
2023-03-11T19:31:56.729Z,12.68
2023-03-11T19:34:27.355Z,12.46
2023-03-11T19:36:56.670Z,12.54
2023-03-11T19:39:25.629Z,12.58
2023-03-11T19:41:55.670Z,12.72
2023-03-11T19:44:30.517Z,12.69
2023-03-11T19:46:59.015Z,12.84
2023-03-11T19:49:30.408Z,12.54
2023-03-11T19:51:59.423Z,12.44
2023-03-11T19:54:28.675Z,12.71
2023-03-11T19:57:00.686Z,12.66
2023-03-11T19:59:30.946Z,12.57
2023-03-11T20:01:59.972Z,12.53
2023-03-11T20:04:31.218Z,12.28
2023-03-11T20:06:59.876Z,12.44
2023-03-11T20:09:28.898Z,12.41
2023-03-11T20:11:57.714Z,12.52
2023-03-11T20:14:28.237Z,12.38
2023-03-11T20:16:56.878Z,12.43
2023-03-11T20:19:25.963Z,12.63
2023-03-11T20:21:54.871Z,12.58
2023-03-11T20:24:26.733Z,12.73
2023-03-11T20:26:57.174Z,12.64
2023-03-11T20:29:25.755Z,12.81
2023-03-11T20:31:55.415Z,12.78
2023-03-11T20:34:24.283Z,12.77
2023-03-11T20:36:57.254Z,12.53
2023-03-11T20:39:28.529Z,12.54
2023-03-11T20:41:57.075Z,12.89
2023-03-11T20:44:25.716Z,13.15
2023-03-11T20:46:55.169Z,12.96
2023-03-11T20:49:30.363Z,13.27
2023-03-11T20:51:59.090Z,13.46
2023-03-11T20:54:28.449Z,13.39
2023-03-11T20:57:00.157Z,13.50
2023-03-11T20:59:29.578Z,13.54
2023-03-11T21:02:02.566Z,13.71
2023-03-11T21:04:31.313Z,13.59
2023-03-11T21:07:06.701Z,13.83
2023-03-11T21:09:36.508Z,13.83
2023-03-11T21:12:05.598Z,13.67
2023-03-11T21:19:43.856Z,13.30
2023-03-11T21:22:15.678Z,12.93
2023-03-11T21:24:46.328Z,12.92
2023-03-11T21:27:16.259Z,12.91
2023-03-11T21:29:49.801Z,13.02
2023-03-11T21:36:22.239Z,13.28
2023-03-11T21:39:03.336Z,13.36
2023-03-11T21:45:21.271Z,13.40
2023-03-11T21:49:02.634Z,13.58
2023-03-11T21:51:31.420Z,13.41
2023-03-11T21:54:00.044Z,13.39
2023-03-11T21:56:30.438Z,13.29
2023-03-11T21:58:59.244Z,13.21
2023-03-11T22:01:29.046Z,13.20
2023-03-11T22:03:57.884Z,13.28
2023-03-11T22:06:26.560Z,13.05
2023-03-11T22:09:02.002Z,13.11
2023-03-11T22:11:31.931Z,13.19
2023-03-11T22:14:01.521Z,12.80
2023-03-11T22:16:30.833Z,13.03
2023-03-11T22:19:00.516Z,13.14
2023-03-11T22:21:30.702Z,13.15
2023-03-11T22:23:59.465Z,13.02
2023-03-11T22:30:20.129Z,12.42
2023-03-11T22:33:45.667Z,12.34
2023-03-11T22:36:34.229Z,12.26
2023-03-11T22:42:16.322Z,12.23
2023-03-11T22:44:48.638Z,12.16
2023-03-11T22:47:17.432Z,12.20
2023-03-11T22:49:46.968Z,12.35
2023-03-11T22:52:46.468Z,12.21
2023-03-11T22:55:24.796Z,12.02
2023-03-11T22:57:58.983Z,12.22
2023-03-11T23:00:29.113Z,12.21
2023-03-11T23:02:57.990Z,12.35
2023-03-11T23:05:27.345Z,12.29
2023-03-11T23:07:56.118Z,12.05
2023-03-11T23:10:29.296Z,12.10
2023-03-11T23:12:57.941Z,11.96
2023-03-11T23:15:26.674Z,12.11
2023-03-11T23:18:02.459Z,12.49
2023-03-11T23:20:37.351Z,12.23
2023-03-11T23:23:08.939Z,12.27
2023-03-11T23:25:41.338Z,12.29
2023-03-11T23:28:17.322Z,12.46
2023-03-11T23:30:46.690Z,12.37
2023-03-11T23:33:24.596Z,12.19
2023-03-11T23:35:56.070Z,11.91
2023-03-11T23:38:32.827Z,11.85
2023-03-11T23:41:10.965Z,11.92
2023-03-11T23:43:42.603Z,11.95
2023-03-11T23:46:32.549Z,12.11
2023-03-11T23:49:02.751Z,12.26
2023-03-11T23:51:34.943Z,12.05
2023-03-11T23:54:08.192Z,12.17
2023-03-11T23:56:39.334Z,12.22
2023-03-11T23:59:08.717Z,12.28
